Ocean Ridge, Florida
Current Conditions -  °F | °C
As of 8:53 PM on Friday 21 Nov 2014 (Local Time) from KBCT Reporting Station
Overcast Overcast  
Wind Chill: 72°   Ceiling: 2700
Heat Index: 72°   Visibility: 10mi
Dew Point: 64°   Wind: 18mph
Humidity: 78%   Direction: 90°E
Pressure: 30.21"   Gusts: 28mph
Location:  26.5249°N, 80.0659°W
Report Text: KBCT 220153Z 09016G24KT 10SM SCT020 BKN027 OVC031 22/18 A3021
Loading
Personal Weather Stations






























Interactive Weather Map New forecast layout! Learn more

10-Day Weather Forecast

Advertisements
Track Severe Weather on mobile